createdAt,value
2023-05-05T00:01:10.335Z,45.02
2023-05-05T00:03:53.532Z,45.02
2023-05-05T00:06:37.899Z,45.23
2023-05-05T00:09:20.818Z,45.24
2023-05-05T00:12:03.732Z,45.43
2023-05-05T00:14:46.691Z,45.48
2023-05-05T00:17:29.706Z,45.58
2023-05-05T00:20:13.700Z,45.55
2023-05-05T00:22:58.028Z,45.58
2023-05-05T00:25:41.133Z,45.75
2023-05-05T00:28:24.086Z,45.88
2023-05-05T00:31:07.564Z,46.10
2023-05-05T00:33:50.521Z,45.98
2023-05-05T00:36:33.931Z,45.74
2023-05-05T00:39:18.609Z,45.80
2023-05-05T00:42:01.326Z,46.54
2023-05-05T00:44:44.980Z,45.96
2023-05-05T00:47:27.976Z,45.76
2023-05-05T00:50:12.006Z,45.62
2023-05-05T00:52:57.269Z,45.73
2023-05-05T00:55:41.674Z,45.90
2023-05-05T00:58:25.759Z,45.97
2023-05-05T01:01:08.973Z,45.63
2023-05-05T01:03:52.235Z,45.91
2023-05-05T01:06:49.562Z,46.12
2023-05-05T01:09:39.566Z,45.96
2023-05-05T01:12:38.308Z,45.93
2023-05-05T01:15:30.459Z,45.79
2023-05-05T01:18:24.907Z,46.10
2023-05-05T01:21:14.802Z,46.01
2023-05-05T01:24:40.136Z,46.06
2023-05-05T01:27:51.224Z,46.21
2023-05-05T01:30:56.131Z,46.14
2023-05-05T01:33:46.945Z,46.22
2023-05-05T01:36:37.370Z,46.22
2023-05-05T01:39:22.102Z,46.29
2023-05-05T01:42:09.303Z,46.15
2023-05-05T01:44:54.106Z,46.28
2023-05-05T01:47:38.789Z,46.21
2023-05-05T01:50:24.091Z,46.25
2023-05-05T01:53:09.588Z,46.03
2023-05-05T01:55:53.963Z,46.15
2023-05-05T01:58:38.607Z,45.95
2023-05-05T02:01:23.796Z,45.54
2023-05-05T02:04:09.853Z,45.17
2023-05-05T02:06:57.423Z,45.19
2023-05-05T02:09:41.903Z,45.09
2023-05-05T02:12:24.910Z,45.25
2023-05-05T02:15:09.989Z,45.28
2023-05-05T02:17:53.991Z,45.48
2023-05-05T02:20:39.690Z,45.82
2023-05-05T02:23:23.764Z,46.27
2023-05-05T02:26:09.118Z,46.01
2023-05-05T02:29:02.054Z,45.91
2023-05-05T02:31:49.243Z,45.88
2023-05-05T02:34:41.203Z,45.99
2023-05-05T02:37:31.104Z,45.77
2023-05-05T02:40:21.063Z,45.99
2023-05-05T02:43:07.481Z,45.56
2023-05-05T02:45:50.561Z,45.33
2023-05-05T02:48:34.837Z,45.40
2023-05-05T02:51:18.334Z,45.31
2023-05-05T02:54:01.676Z,45.11
2023-05-05T02:56:51.052Z,45.05
2023-05-05T02:59:43.042Z,45.00
2023-05-05T03:02:36.418Z,45.08
2023-05-05T03:05:26.314Z,44.90
2023-05-05T03:08:15.138Z,44.82
2023-05-05T03:11:01.127Z,45.03
2023-05-05T03:13:48.071Z,44.85
2023-05-05T03:16:36.770Z,45.09
2023-05-05T03:19:21.413Z,45.15
2023-05-05T03:22:09.318Z,44.93
2023-05-05T03:24:55.162Z,44.79
2023-05-05T03:27:40.309Z,44.84
2023-05-05T03:30:25.470Z,44.70
2023-05-05T03:33:09.383Z,44.62
2023-05-05T03:35:52.571Z,44.35
2023-05-05T03:38:35.471Z,44.41
2023-05-05T03:41:18.427Z,44.46
2023-05-05T03:44:01.838Z,44.49
2023-05-05T03:46:47.058Z,44.74
2023-05-05T03:49:31.701Z,44.40
2023-05-05T03:52:15.141Z,44.37
2023-05-05T03:55:00.208Z,44.38
2023-05-05T03:57:45.967Z,44.05
2023-05-05T04:00:28.918Z,44.43
2023-05-05T04:03:13.573Z,44.27
2023-05-05T04:05:56.805Z,44.29
2023-05-05T04:08:40.610Z,44.27
2023-05-05T04:11:23.966Z,44.34
2023-05-05T04:14:07.070Z,44.30
2023-05-05T04:16:50.292Z,44.23
2023-05-05T04:19:34.633Z,44.06
2023-05-05T04:22:19.183Z,43.92
2023-05-05T04:25:02.311Z,43.75
2023-05-05T04:27:45.848Z,43.52
2023-05-05T04:30:30.281Z,43.51
2023-05-05T04:33:13.987Z,43.22
2023-05-05T04:35:58.510Z,43.25
2023-05-05T04:38:41.751Z,42.20
2023-05-05T04:41:24.859Z,43.10
2023-05-05T04:44:07.920Z,42.93
2023-05-05T04:46:50.950Z,42.78
2023-05-05T04:49:34.047Z,42.85
2023-05-05T04:52:19.268Z,42.51
2023-05-05T04:55:02.976Z,41.31
2023-05-05T04:57:45.878Z,42.19
2023-05-05T05:00:28.793Z,42.32
2023-05-05T05:03:12.703Z,42.30
2023-05-05T05:05:55.608Z,42.40
2023-05-05T05:08:39.957Z,42.36
2023-05-05T05:11:23.012Z,42.14
2023-05-05T05:14:05.970Z,42.18
2023-05-05T05:16:52.426Z,42.16
2023-05-05T05:19:37.667Z,42.17
2023-05-05T05:22:20.812Z,42.30
2023-05-05T05:25:05.890Z,42.08
2023-05-05T05:27:58.473Z,42.11
2023-05-05T05:30:52.141Z,42.09
2023-05-05T05:33:35.674Z,42.00
2023-05-05T05:36:18.622Z,42.31
2023-05-05T05:39:01.987Z,42.30
2023-05-05T05:41:46.538Z,42.48
2023-05-05T05:44:29.652Z,42.30
2023-05-05T05:47:12.902Z,42.24
2023-05-05T05:49:55.803Z,42.02
2023-05-05T05:52:39.134Z,41.97
2023-05-05T05:55:22.871Z,41.96
2023-05-05T05:58:07.400Z,41.96
2023-05-05T06:00:50.960Z,42.15
2023-05-05T06:03:34.032Z,42.03
2023-05-05T06:06:17.271Z,42.06
2023-05-05T06:09:00.585Z,41.87
2023-05-05T06:11:44.493Z,42.00
2023-05-05T06:14:28.977Z,41.91
2023-05-05T06:17:11.941Z,41.66
2023-05-05T06:19:57.835Z,41.61
2023-05-05T06:22:40.793Z,41.12
2023-05-05T06:25:23.871Z,40.90
2023-05-05T06:28:09.339Z,40.79
2023-05-05T06:30:53.639Z,40.56
2023-05-05T06:33:36.588Z,40.41
2023-05-05T06:36:19.547Z,40.28
2023-05-05T06:39:03.003Z,40.42
2023-05-05T06:41:45.924Z,40.30
2023-05-05T06:44:31.131Z,40.07
2023-05-05T06:47:15.460Z,40.33
2023-05-05T06:49:58.348Z,40.23
2023-05-05T06:52:41.279Z,40.02
2023-05-05T06:55:25.045Z,39.91
2023-05-05T06:58:07.948Z,39.64
2023-05-05T07:00:50.972Z,39.59
2023-05-05T07:03:35.351Z,39.98
2023-05-05T07:06:18.275Z,40.40
2023-05-05T07:09:01.174Z,40.09
2023-05-05T07:11:44.125Z,40.17
2023-05-05T07:14:27.145Z,40.09
2023-05-05T07:17:10.001Z,39.92
2023-05-05T07:19:55.042Z,40.08
2023-05-05T07:22:38.156Z,39.99
2023-05-05T07:25:21.166Z,40.42
2023-05-05T07:28:04.415Z,40.50
2023-05-05T07:30:48.084Z,40.47
2023-05-05T07:33:31.705Z,40.58
2023-05-05T07:36:18.300Z,40.34
2023-05-05T07:39:01.537Z,40.23
2023-05-05T07:41:44.735Z,40.14
2023-05-05T07:44:27.607Z,39.85
2023-05-05T07:47:11.093Z,39.74
2023-05-05T07:49:54.060Z,39.70
2023-05-05T07:52:48.256Z,39.46
2023-05-05T07:55:34.544Z,39.31
2023-05-05T07:58:19.080Z,39.20
2023-05-05T08:01:02.829Z,39.44
2023-05-05T08:03:45.947Z,39.30
2023-05-05T08:06:29.890Z,38.75
2023-05-05T08:09:15.055Z,38.96
2023-05-05T08:11:58.099Z,39.04
2023-05-05T08:14:42.467Z,39.10
2023-05-05T08:17:26.249Z,38.92
2023-05-05T08:20:10.118Z,38.55
2023-05-05T08:22:53.713Z,38.61
2023-05-05T08:25:38.109Z,38.33
2023-05-05T08:28:21.062Z,37.96
2023-05-05T08:31:04.209Z,38.48
2023-05-05T08:33:47.760Z,38.14
2023-05-05T08:36:31.040Z,38.23
2023-05-05T08:39:14.036Z,38.01
2023-05-05T08:41:59.067Z,37.58
2023-05-05T08:44:43.130Z,37.58
2023-05-05T08:47:26.906Z,37.58
2023-05-05T08:50:12.143Z,36.66
2023-05-05T08:53:07.197Z,37.05
2023-05-05T08:55:52.308Z,36.32
2023-05-05T08:58:38.157Z,37.37
2023-05-05T09:01:22.272Z,37.26
2023-05-05T09:04:10.072Z,37.10
2023-05-05T09:06:53.742Z,36.81
2023-05-05T09:09:37.185Z,36.61
2023-05-05T09:12:22.734Z,36.07
2023-05-05T09:15:08.129Z,35.62
2023-05-05T09:17:51.522Z,35.02
2023-05-05T09:20:35.973Z,34.91
2023-05-05T09:23:20.405Z,35.53
2023-05-05T09:26:05.272Z,35.34
2023-05-05T09:28:52.912Z,35.00
2023-05-05T09:31:38.173Z,34.64
2023-05-05T09:34:21.155Z,33.94
2023-05-05T09:37:04.337Z,33.30
2023-05-05T09:39:56.098Z,32.12
2023-05-05T09:42:40.066Z,32.29
2023-05-05T09:45:27.828Z,31.31
2023-05-05T09:48:26.436Z,31.40
2023-05-05T09:51:10.136Z,31.82
2023-05-05T09:53:53.511Z,31.86
2023-05-05T09:56:41.185Z,31.15
2023-05-05T09:59:25.113Z,31.02
2023-05-05T10:02:13.678Z,30.33
2023-05-05T10:05:07.015Z,29.22
2023-05-05T10:07:49.957Z,30.91
2023-05-05T10:10:33.072Z,30.64
2023-05-05T10:13:19.799Z,29.74
2023-05-05T10:16:05.395Z,29.78
2023-05-05T10:18:48.986Z,30.00
2023-05-05T10:21:42.166Z,29.48
2023-05-05T10:24:36.113Z,29.31
2023-05-05T10:27:22.103Z,29.61
2023-05-05T10:30:07.622Z,29.93
2023-05-05T10:33:07.920Z,29.87
2023-05-05T10:36:01.854Z,29.43
2023-05-05T10:38:47.478Z,29.62
2023-05-05T10:41:31.887Z,29.19
2023-05-05T10:44:16.276Z,29.44
2023-05-05T10:47:01.133Z,27.89
2023-05-05T10:49:50.084Z,28.59
2023-05-05T10:52:39.560Z,28.05
2023-05-05T10:55:30.028Z,28.15
2023-05-05T10:58:35.030Z,26.80
2023-05-05T11:01:32.575Z,26.85
2023-05-05T11:04:23.106Z,27.02
2023-05-05T11:07:27.560Z,26.54
2023-05-05T11:10:12.224Z,27.30
2023-05-05T11:13:24.489Z,25.67
2023-05-05T11:16:48.095Z,25.72
2023-05-05T11:19:48.261Z,26.27
2023-05-05T11:22:31.273Z,26.60
2023-05-05T11:25:51.511Z,25.08
2023-05-05T11:28:36.189Z,26.00
2023-05-05T11:31:20.273Z,26.06
2023-05-05T11:34:26.834Z,26.10
2023-05-05T11:37:09.992Z,26.59
2023-05-05T11:40:04.655Z,25.84
2023-05-05T11:42:47.590Z,26.42
2023-05-05T11:45:32.637Z,26.40
2023-05-05T11:48:28.255Z,26.40
2023-05-05T11:51:12.655Z,26.99
2023-05-05T11:53:58.412Z,26.40
2023-05-05T11:56:51.104Z,26.21
2023-05-05T11:59:34.889Z,26.33
2023-05-05T12:02:19.585Z,26.88
2023-05-05T12:05:02.920Z,27.09
2023-05-05T12:07:46.897Z,27.63
2023-05-05T12:10:30.023Z,27.24
2023-05-05T12:13:20.385Z,27.31
2023-05-05T12:16:10.601Z,27.08
2023-05-05T12:19:06.827Z,26.79
2023-05-05T12:21:50.200Z,26.65
2023-05-05T12:24:33.102Z,26.72
2023-05-05T12:27:16.062Z,27.28
2023-05-05T12:30:12.491Z,26.67
2023-05-05T12:33:03.206Z,26.15
2023-05-05T12:35:48.080Z,26.63
2023-05-05T12:38:31.072Z,26.35
2023-05-05T12:41:19.742Z,26.01
2023-05-05T12:44:05.252Z,25.54
2023-05-05T12:46:52.408Z,25.36
2023-05-05T12:49:46.501Z,25.39
2023-05-05T12:52:43.341Z,25.80
2023-05-05T12:55:37.497Z,25.00
2023-05-05T12:58:20.822Z,25.99
2023-05-05T13:01:10.205Z,25.75
2023-05-05T13:04:10.908Z,25.51
2023-05-05T13:07:10.849Z,24.85
2023-05-05T13:10:08.286Z,25.93
2023-05-05T13:12:51.657Z,24.80
2023-05-05T13:15:35.264Z,24.81
2023-05-05T13:18:18.230Z,24.61
2023-05-05T13:21:01.109Z,24.69
2023-05-05T13:23:44.982Z,25.01
2023-05-05T13:26:29.929Z,24.89
2023-05-05T13:29:12.788Z,25.25
2023-05-05T13:31:55.733Z,25.06
2023-05-05T13:34:39.258Z,24.95
2023-05-05T13:37:22.485Z,24.57
2023-05-05T13:40:06.271Z,24.98
2023-05-05T13:42:50.579Z,24.78
2023-05-05T13:45:34.392Z,25.38
2023-05-05T13:48:17.394Z,25.31
2023-05-05T13:51:00.459Z,26.02
2023-05-05T13:53:44.071Z,25.04
2023-05-05T13:56:27.829Z,25.17
2023-05-05T13:59:12.097Z,25.71
2023-05-05T14:01:56.044Z,25.81
2023-05-05T14:04:38.886Z,25.76
2023-05-05T14:07:21.957Z,25.87
2023-05-05T14:10:05.620Z,25.49
2023-05-05T14:12:48.856Z,25.91
2023-05-05T14:15:33.415Z,26.22
2023-05-05T14:18:16.689Z,26.41
2023-05-05T14:20:59.577Z,26.51
2023-05-05T14:23:42.467Z,25.85
2023-05-05T14:26:25.762Z,26.04
2023-05-05T14:29:08.733Z,26.29
2023-05-05T14:31:53.060Z,25.48
2023-05-05T14:34:36.036Z,25.87
2023-05-05T14:37:18.929Z,26.37
2023-05-05T14:40:03.661Z,25.59
2023-05-05T14:42:50.889Z,26.02
2023-05-05T14:45:34.132Z,25.89
2023-05-05T14:48:21.760Z,26.19
2023-05-05T14:51:05.378Z,25.90
2023-05-05T14:53:48.268Z,25.68
2023-05-05T14:56:31.301Z,26.01
2023-05-05T14:59:14.289Z,26.10
2023-05-05T15:01:57.455Z,26.68
2023-05-05T15:04:42.320Z,26.85
2023-05-05T15:07:28.406Z,27.27
2023-05-05T15:10:12.185Z,27.39
2023-05-05T15:12:55.141Z,27.31
2023-05-05T15:15:38.078Z,27.46
2023-05-05T15:18:21.084Z,26.93
2023-05-05T15:21:05.925Z,27.79
2023-05-05T15:23:48.844Z,27.67
2023-05-05T15:26:31.930Z,27.86
2023-05-05T15:29:15.025Z,28.13
2023-05-05T15:31:57.956Z,28.43
2023-05-05T15:34:41.077Z,29.03
2023-05-05T15:37:26.329Z,28.84
2023-05-05T15:40:10.434Z,28.47
2023-05-05T15:42:53.520Z,29.05
2023-05-05T15:45:36.425Z,29.58
2023-05-05T15:48:19.974Z,29.39
2023-05-05T15:51:02.874Z,29.54
2023-05-05T15:53:47.290Z,29.50
2023-05-05T15:56:30.253Z,29.92
2023-05-05T15:59:13.572Z,30.11
2023-05-05T16:01:56.420Z,30.19
2023-05-05T16:04:39.362Z,29.95
2023-05-05T16:07:22.297Z,30.43
2023-05-05T16:10:07.592Z,30.45
2023-05-05T16:12:59.735Z,30.49
2023-05-05T16:15:45.105Z,30.50
2023-05-05T16:18:27.997Z,30.30
2023-05-05T16:21:11.096Z,30.64
2023-05-05T16:23:54.066Z,31.21
2023-05-05T16:26:38.266Z,31.13
2023-05-05T16:29:21.246Z,31.47
2023-05-05T16:32:05.576Z,31.68
2023-05-05T16:34:48.521Z,31.69
2023-05-05T16:37:31.482Z,32.04
2023-05-05T16:40:14.598Z,32.26
2023-05-05T16:42:58.863Z,32.06
2023-05-05T16:45:41.795Z,32.22
2023-05-05T16:48:24.702Z,32.53
2023-05-05T16:51:07.723Z,32.57
2023-05-05T16:53:51.323Z,32.95
2023-05-05T16:56:34.237Z,33.26
2023-05-05T16:59:19.369Z,33.07
2023-05-05T17:02:02.528Z,33.31
2023-05-05T17:04:45.617Z,33.84
2023-05-05T17:07:28.582Z,33.83
2023-05-05T17:10:11.910Z,34.06
2023-05-05T17:12:55.395Z,34.28
2023-05-05T17:15:40.086Z,34.12
2023-05-05T17:18:25.842Z,34.55
2023-05-05T17:21:08.999Z,34.35
2023-05-05T17:23:51.888Z,34.93
2023-05-05T17:26:34.802Z,34.64
2023-05-05T17:29:19.864Z,34.83
2023-05-05T17:32:04.399Z,35.36
2023-05-05T17:34:48.172Z,35.02
2023-05-05T17:37:31.364Z,35.26
2023-05-05T17:40:14.500Z,35.81
2023-05-05T17:42:58.067Z,35.89
2023-05-05T17:45:42.293Z,35.96
2023-05-05T17:48:27.191Z,36.21
2023-05-05T17:51:10.370Z,36.04
2023-05-05T17:53:53.263Z,36.08
2023-05-05T17:56:36.912Z,36.30
2023-05-05T17:59:19.791Z,36.44
2023-05-05T18:02:02.815Z,36.88
2023-05-05T18:04:47.338Z,36.81
2023-05-05T18:07:30.591Z,37.72
2023-05-05T18:10:13.601Z,37.56
2023-05-05T18:12:57.500Z,38.41
2023-05-05T18:15:41.225Z,38.21
2023-05-05T18:18:24.203Z,39.03
2023-05-05T18:21:12.060Z,39.94
2023-05-05T18:24:01.775Z,40.09
2023-05-05T18:26:52.395Z,40.01
2023-05-05T18:29:36.140Z,40.38
2023-05-05T18:32:19.208Z,40.40
2023-05-05T18:35:02.133Z,40.71
2023-05-05T18:37:46.560Z,40.14
2023-05-05T18:40:29.467Z,40.18
2023-05-05T18:43:13.096Z,40.29
2023-05-05T18:45:56.102Z,39.74
2023-05-05T18:48:39.018Z,40.21
2023-05-05T18:51:21.885Z,39.79
2023-05-05T18:54:07.425Z,40.55
2023-05-05T18:56:50.343Z,40.23
2023-05-05T18:59:33.252Z,40.17
2023-05-05T19:02:17.895Z,39.57
2023-05-05T19:05:01.232Z,39.19
2023-05-05T19:07:45.456Z,39.70
2023-05-05T19:10:29.795Z,39.44
2023-05-05T19:13:12.875Z,39.29
2023-05-05T19:15:57.210Z,39.58
2023-05-05T19:18:40.134Z,39.54
2023-05-05T19:21:23.075Z,38.65
2023-05-05T19:24:07.588Z,38.92
2023-05-05T19:26:51.920Z,39.13
2023-05-05T19:29:34.797Z,38.71
2023-05-05T19:32:17.846Z,39.17
2023-05-05T19:35:01.500Z,39.20
2023-05-05T19:37:45.451Z,39.30
2023-05-05T19:40:28.334Z,39.36
2023-05-05T19:43:13.418Z,39.61
2023-05-05T19:45:56.356Z,39.24
2023-05-05T19:48:39.239Z,39.33
2023-05-05T19:51:22.489Z,39.36
2023-05-05T19:54:06.178Z,39.50
2023-05-05T19:56:49.105Z,39.37
2023-05-05T19:59:33.653Z,39.69
2023-05-05T20:02:17.096Z,39.34
2023-05-05T20:05:00.057Z,39.42
2023-05-05T20:07:42.926Z,39.47
2023-05-05T20:10:27.631Z,39.11
2023-05-05T20:13:10.390Z,38.93
2023-05-05T20:15:55.433Z,39.17
2023-05-05T20:18:39.745Z,39.46
2023-05-05T20:21:22.755Z,39.48
2023-05-05T20:24:06.482Z,39.33
2023-05-05T20:26:50.484Z,39.20
2023-05-05T20:29:33.378Z,39.39
2023-05-05T20:32:20.667Z,39.80
2023-05-05T20:35:05.534Z,39.75
2023-05-05T20:37:48.705Z,39.73
2023-05-05T20:40:31.721Z,39.71
2023-05-05T20:43:14.629Z,39.70
2023-05-05T20:45:57.528Z,39.84
2023-05-05T20:48:43.038Z,39.92
2023-05-05T20:51:29.276Z,40.19
2023-05-05T20:54:12.169Z,40.70
2023-05-05T20:56:58.167Z,40.41
2023-05-05T20:59:41.094Z,40.11
2023-05-05T21:02:24.267Z,40.27
2023-05-05T21:05:09.394Z,40.57
2023-05-05T21:07:54.875Z,40.59
2023-05-05T21:10:38.471Z,40.25
2023-05-05T21:13:23.019Z,40.32
2023-05-05T21:16:06.811Z,40.53
2023-05-05T21:18:49.959Z,40.28
2023-05-05T21:21:34.425Z,40.96
2023-05-05T21:24:17.308Z,41.07
2023-05-05T21:27:00.192Z,41.10
2023-05-05T21:29:43.095Z,41.49
2023-05-05T21:32:26.139Z,41.48
2023-05-05T21:35:10.224Z,41.13
2023-05-05T21:37:54.470Z,41.40
2023-05-05T21:40:37.325Z,41.42
2023-05-05T21:43:20.214Z,41.45
2023-05-05T21:46:03.791Z,41.59
2023-05-05T21:48:48.230Z,41.26
2023-05-05T21:51:31.501Z,41.65
2023-05-05T21:54:15.927Z,41.25
2023-05-05T21:56:58.815Z,41.26
2023-05-05T21:59:41.738Z,43.28
2023-05-05T22:02:24.664Z,47.47
2023-05-05T22:05:09.367Z,48.53
2023-05-05T22:07:52.249Z,50.69
2023-05-05T22:10:37.514Z,53.57
2023-05-05T22:13:20.561Z,53.24
2023-05-05T22:16:03.565Z,53.70
2023-05-05T22:18:47.268Z,54.54
2023-05-05T22:21:30.215Z,55.53
2023-05-05T22:24:13.088Z,57.25
2023-05-05T22:26:57.551Z,58.85
2023-05-05T22:29:40.419Z,58.40
2023-05-05T22:32:23.354Z,58.93
2023-05-05T22:35:07.413Z,59.35
2023-05-05T22:37:50.440Z,59.42
2023-05-05T22:40:33.392Z,59.71
2023-05-05T22:43:17.661Z,60.01
2023-05-05T22:46:01.105Z,60.42
2023-05-05T22:48:44.065Z,61.04
2023-05-05T22:51:27.898Z,61.95
2023-05-05T22:54:10.862Z,61.91
2023-05-05T22:56:53.697Z,62.55
2023-05-05T22:59:38.023Z,63.33
2023-05-05T23:02:20.910Z,63.57
2023-05-05T23:05:04.036Z,64.41
2023-05-05T23:07:46.941Z,64.58
2023-05-05T23:10:30.046Z,66.92
2023-05-05T23:13:13.027Z,66.07
2023-05-05T23:15:57.312Z,66.98
2023-05-05T23:18:40.199Z,66.41
2023-05-05T23:21:23.234Z,67.59
2023-05-05T23:24:06.603Z,68.08
2023-05-05T23:26:49.566Z,69.30
2023-05-05T23:29:33.462Z,69.87
2023-05-05T23:32:17.689Z,70.07
2023-05-05T23:35:01.154Z,68.96
2023-05-05T23:37:44.055Z,68.84
2023-05-05T23:40:27.159Z,69.24
2023-05-05T23:43:12.006Z,68.90
2023-05-05T23:45:54.880Z,68.57
2023-05-05T23:48:39.383Z,68.23
2023-05-05T23:51:22.337Z,68.11
2023-05-05T23:54:05.436Z,67.38
2023-05-05T23:56:48.554Z,67.46
2023-05-05T23:59:31.518Z,67.40
